Honolulu, HI (96815)

4:39 AM HST on December 11, 2016 (GMT -1000)
Kaimuki - Lower SIerra Drive | | Change Station

Elev 217 ft 21.29 °N, 157.80 °W | Updated 5 seconds ago

Partly Cloudy
Partly Cloudy
67.0 °F
Feels Like 67.0 °F
N
0.0
Wind Variable Wind from NNE
Gusts 0.0 mph

Today
High -- | Low -- °F
--% Chance of Precip.
Yesterday
High -- | Low -- °F
Precip. -- in
Pressure 29.95 in
Visibility 10.0 miles
Clouds Few 2500 ft
Few 3700 ft
Dew Point 64 °F
Humidity 91%
Rainfall 0.00 in
Snow Depth Not available.
6:59 AM 5:50 PM
Waxing Gibbous, 92% visible
METAR PHNL 111353Z 02004KT 10SM FEW025 FEW037 21/19 A2995 RMK AO2 SLP140 T02170189 $
Pressure 29.95 in
Visibility 10.0 miles
Clouds Few 2500 ft
Few 3700 ft
Dew Point 64 °F
Humidity 91%
Rainfall 0.00 in
Snow Depth Not available.
6:59 AM 5:50 PM
Waxing Gibbous, 92% visible
METAR PHNL 111353Z 02004KT 10SM FEW025 FEW037 21/19 A2995 RMK AO2 SLP140 T02170189 $

10-Day Weather Forecast

Almanac

Astronomy

Dec. 11, 2016 Rise Set
Actual Time
Civil Twilight
Nautical Twilight
Astronomical Twilight
Moon
Length of Visible Light
Length of Day
Tomorrow will be .
, % of the Moon is Illuminated

Today's Extremes

State Highs State Lows

Community

WunderPhotos

Upload Photos

1,956,719 photos uploaded!

WunderBlog® & News

Nearby

Air Quality

  Air Quality AQ Index Pollutant
Not available.

Snow Depth

Station Depth Elevation

Earthquake Activity

City Distance Mag. Time & Date
Minimum magnitude displayed is 2.5.

Coastal Water Temperatures

Place Temperature

Stations

Nearby Weather Stations

Station Location Temp. Windchill Dew Point Humidity Wind Precip. Elev Updated Type
                   

Watches & Warnings

There are currently no watches in effect.